Time;durP1;ratioP1;P1;durP2;ratioP2;P2;SDS_P1;SDS_P2;PMS_P1;PMS_P2;Temp;Humidity;BMP_temperature;BMP_pressure;BME280_temperature;BME280_humidity;BME280_pressure;Samples;Min_cycle;Max_cycle;Signal;HPM_P1;HPM_P2
2022/01/04 00:01:22;;;;;;;21.10;11.83;;;;;;;;;;5049257;28;20185;-68
2022/01/04 00:03:47;;;;;;;16.93;10.40;;;;;;;;;;5052405;28;20208;-68
2022/01/04 00:06:12;;;;;;;19.47;11.53;;;;;;;;;;5046203;28;20181;-69
2022/01/04 00:08:38;;;;;;;17.83;10.00;;;;;;;;;;5044251;28;20732;-70
2022/01/04 00:11:13;;;;;;;19.47;10.57;;;;;;;;;;5043701;28;20181;-70
2022/01/04 00:13:39;;;;;;;18.37;11.10;;;;;;;;;;5043330;28;20181;-70
2022/01/04 00:16:07;;;;;;;21.13;9.30;;;;;;;;;;5024536;28;20540;-70
2022/01/04 00:18:32;;;;;;;16.93;10.20;;;;;;;;;;5032818;28;20208;-70
2022/01/04 00:20:57;;;;;;;15.70;9.47;;;;;;;;;;5042824;28;20176;-70
2022/01/04 00:23:23;;;;;;;16.77;10.17;;;;;;;;;;5041494;28;20177;-70
2022/01/04 00:25:48;;;;;;;19.83;10.10;;;;;;;;;;5042371;28;20543;-70
2022/01/04 00:28:13;;;;;;;19.80;10.53;;;;;;;;;;5023730;28;20189;-70
2022/01/04 00:30:39;;;;;;;16.70;10.60;;;;;;;;;;5044080;28;20185;-70
2022/01/04 00:33:05;;;;;;;18.50;12.47;;;;;;;;;;5070125;22;20308;-72
2022/01/04 00:35:30;;;;;;;15.03;10.00;;;;;;;;;;5067915;28;20309;-74
2022/01/04 00:37:57;;;;;;;20.10;12.30;;;;;;;;;;5044577;28;20196;-74
2022/01/04 00:40:22;;;;;;;20.40;10.33;;;;;;;;;;5059017;28;20185;-73
2022/01/04 00:42:47;;;;;;;21.73;10.50;;;;;;;;;;5051588;28;20219;-72
2022/01/04 00:45:12;;;;;;;18.40;11.07;;;;;;;;;;5046798;28;20176;-74
2022/01/04 00:47:46;;;;;;;17.93;11.63;;;;;;;;;;5046186;28;20669;-72
2022/01/04 00:50:11;;;;;;;19.10;11.30;;;;;;;;;;5044742;28;20200;-72
2022/01/04 00:52:36;;;;;;;19.73;11.67;;;;;;;;;;5047125;28;20197;-71
2022/01/04 00:55:03;;;;;;;16.60;11.43;;;;;;;;;;5046128;28;20613;-74
2022/01/04 00:57:28;;;;;;;19.23;11.47;;;;;;;;;;5026594;28;20209;-72
2022/01/04 00:59:53;;;;;;;17.47;10.67;;;;;;;;;;5047814;28;20173;-72
2022/01/04 01:02:18;;;;;;;19.50;11.40;;;;;;;;;;5047254;28;20718;-72
2022/01/04 01:04:44;;;;;;;22.13;11.87;;;;;;;;;;5047988;28;20741;-72
2022/01/04 01:07:09;;;;;;;17.33;11.77;;;;;;;;;;5046513;28;20193;-72
2022/01/04 01:09:42;;;;;;;15.80;10.43;;;;;;;;;;5048067;28;20185;-72
2022/01/04 01:12:07;;;;;;;17.93;11.77;;;;;;;;;;5049196;28;20196;-72
2022/01/04 01:14:33;;;;;;;20.43;13.47;;;;;;;;;;5044757;28;20187;-72
2022/01/04 01:16:58;;;;;;;19.80;12.37;;;;;;;;;;5051850;28;20237;-72
2022/01/04 01:19:23;;;;;;;18.53;12.33;;;;;;;;;;5043707;28;21753;-73
2022/01/04 01:21:48;;;;;;;20.60;11.57;;;;;;;;;;5044964;28;20224;-74
2022/01/04 01:24:13;;;;;;;19.57;11.10;;;;;;;;;;5043329;28;20177;-73
2022/01/04 01:26:39;;;;;;;18.17;11.93;;;;;;;;;;5044241;28;20193;-71
2022/01/04 01:29:04;;;;;;;18.53;11.43;;;;;;;;;;5044946;28;20272;-74
2022/01/04 01:31:30;;;;;;;19.90;12.40;;;;;;;;;;5045401;28;20185;-71
2022/01/04 01:33:56;;;;;;;20.27;11.63;;;;;;;;;;5044258;28;21183;-73
2022/01/04 01:36:21;;;;;;;22.03;12.10;;;;;;;;;;5044261;28;20204;-74
2022/01/04 01:38:47;;;;;;;21.00;11.83;;;;;;;;;;5045876;28;20634;-72
2022/01/04 01:41:12;;;;;;;16.23;11.53;;;;;;;;;;5044433;28;20556;-73
2022/01/04 01:43:37;;;;;;;16.23;12.20;;;;;;;;;;5052671;28;20192;-71
2022/01/04 01:46:02;;;;;;;21.50;10.60;;;;;;;;;;5057801;28;20168;-71
2022/01/04 01:48:28;;;;;;;15.13;11.60;;;;;;;;;;5048897;28;20665;-72
2022/01/04 01:50:54;;;;;;;18.27;11.63;;;;;;;;;;5058599;28;20189;-74
2022/01/04 01:53:19;;;;;;;16.17;11.90;;;;;;;;;;5043567;28;20642;-73
2022/01/04 01:55:44;;;;;;;18.37;11.50;;;;;;;;;;5047273;28;20276;-72
2022/01/04 01:58:09;;;;;;;18.87;12.07;;;;;;;;;;5046604;28;20223;-72
2022/01/04 02:00:35;;;;;;;15.17;11.47;;;;;;;;;;5053103;28;20173;-73
2022/01/04 02:03:02;;;;;;;18.87;12.20;;;;;;;;;;5028620;28;20280;-74
2022/01/04 02:05:27;;;;;;;17.67;12.40;;;;;;;;;;5053984;28;20213;-74
2022/01/04 02:07:54;;;;;;;16.67;11.90;;;;;;;;;;5048487;28;20409;-74
2022/01/04 02:10:19;;;;;;;18.40;11.33;;;;;;;;;;5046844;28;20671;-73
2022/01/04 02:12:49;;;;;;;16.50;11.83;;;;;;;;;;5047737;28;20287;-72
2022/01/04 02:15:19;;;;;;;21.87;14.63;;;;;;;;;;5050738;28;20172;-74
2022/01/04 02:17:45;;;;;;;25.37;14.33;;;;;;;;;;5030191;28;20311;-72
2022/01/04 02:20:10;;;;;;;15.70;12.57;;;;;;;;;;5050475;28;20647;-72
2022/01/04 02:22:36;;;;;;;19.00;12.93;;;;;;;;;;5048462;28;20749;-72
2022/01/04 02:25:01;;;;;;;19.33;12.93;;;;;;;;;;5047656;28;20173;-72
2022/01/04 02:27:26;;;;;;;18.70;12.97;;;;;;;;;;5046637;28;20200;-71
2022/01/04 02:29:51;;;;;;;14.77;12.47;;;;;;;;;;5048064;28;20343;-73
2022/01/04 02:32:17;;;;;;;16.93;13.33;;;;;;;;;;5051583;28;20678;-71
2022/01/04 02:34:47;;;;;;;20.47;13.87;;;;;;;;;;5054872;28;20177;-72
2022/01/04 02:37:12;;;;;;;18.83;11.87;;;;;;;;;;5052026;28;21025;-73
2022/01/04 02:39:37;;;;;;;20.73;13.63;;;;;;;;;;5047382;28;20206;-71
2022/01/04 02:42:04;;;;;;;20.63;13.10;;;;;;;;;;5049773;28;20197;-70
2022/01/04 02:44:29;;;;;;;21.67;13.47;;;;;;;;;;5046627;28;20696;-73
2022/01/04 02:46:54;;;;;;;20.87;14.13;;;;;;;;;;5047349;28;20180;-72
2022/01/04 02:49:19;;;;;;;20.03;13.60;;;;;;;;;;5035199;28;20189;-71
2022/01/04 02:51:44;;;;;;;20.63;14.73;;;;;;;;;;5047511;28;20213;-72
2022/01/04 02:54:10;;;;;;;21.13;14.50;;;;;;;;;;5047000;28;20176;-71
2022/01/04 02:56:35;;;;;;;23.63;14.43;;;;;;;;;;5045856;28;20204;-71
2022/01/04 02:59:03;;;;;;;19.93;14.53;;;;;;;;;;5048440;28;20188;-72
2022/01/04 03:01:29;;;;;;;21.53;14.30;;;;;;;;;;5046148;28;20918;-71
2022/01/04 03:03:54;;;;;;;20.57;14.87;;;;;;;;;;5053578;28;20176;-72
2022/01/04 03:06:19;;;;;;;19.67;13.77;;;;;;;;;;5045907;28;20685;-71
2022/01/04 03:08:44;;;;;;;20.60;14.13;;;;;;;;;;5046551;28;20973;-71
2022/01/04 03:11:09;;;;;;;18.37;13.90;;;;;;;;;;5052151;28;20746;-73
2022/01/04 03:13:35;;;;;;;19.03;14.83;;;;;;;;;;5065557;28;20216;-71
2022/01/04 03:16:00;;;;;;;19.90;14.67;;;;;;;;;;5057936;28;20184;-70
2022/01/04 03:18:25;;;;;;;21.30;13.40;;;;;;;;;;5078336;28;20185;-71
2022/01/04 03:20:50;;;;;;;26.83;13.27;;;;;;;;;;5060271;28;20180;-71
2022/01/04 03:23:16;;;;;;;18.83;13.87;;;;;;;;;;5063207;28;20290;-72
2022/01/04 03:25:42;;;;;;;21.30;13.87;;;;;;;;;;5058534;28;20173;-72
2022/01/04 03:28:07;;;;;;;20.20;14.70;;;;;;;;;;5048461;28;20180;-71
2022/01/04 03:30:32;;;;;;;25.37;14.77;;;;;;;;;;5047412;28;20915;-71
2022/01/04 03:32:58;;;;;;;22.33;14.20;;;;;;;;;;5025175;28;20323;-72
2022/01/04 03:35:23;;;;;;;25.97;13.13;;;;;;;;;;5045942;28;20223;-71
2022/01/04 03:37:50;;;;;;;19.03;13.40;;;;;;;;;;5028455;28;20239;-73
2022/01/04 03:40:15;;;;;;;21.87;13.60;;;;;;;;;;5040237;28;20701;-73
2022/01/04 03:42:40;;;;;;;18.80;13.33;;;;;;;;;;5047603;28;20193;-71
2022/01/04 03:45:06;;;;;;;16.30;12.23;;;;;;;;;;5046105;28;20744;-71
2022/01/04 03:47:31;;;;;;;18.30;13.13;;;;;;;;;;5047872;28;20183;-73
2022/01/04 03:49:56;;;;;;;19.87;13.43;;;;;;;;;;5045974;28;20188;-73
2022/01/04 03:52:22;;;;;;;20.30;12.10;;;;;;;;;;5045954;28;20201;-70
2022/01/04 03:54:47;;;;;;;22.53;11.87;;;;;;;;;;5045464;28;20177;-71
2022/01/04 03:57:12;;;;;;;18.00;12.20;;;;;;;;;;5044803;28;21675;-71
2022/01/04 03:59:37;;;;;;;18.53;13.13;;;;;;;;;;5046833;28;20304;-71
2022/01/04 04:02:02;;;;;;;17.77;13.53;;;;;;;;;;5045066;28;20731;-72
2022/01/04 04:04:28;;;;;;;20.30;13.10;;;;;;;;;;5053153;28;20693;-72
2022/01/04 04:06:53;;;;;;;18.30;12.33;;;;;;;;;;5044941;28;20609;-72
2022/01/04 04:09:18;;;;;;;21.03;12.43;;;;;;;;;;5044862;28;20195;-71
2022/01/04 04:11:43;;;;;;;20.47;12.77;;;;;;;;;;5040752;28;20232;-71
2022/01/04 04:14:08;;;;;;;27.27;15.53;;;;;;;;;;5025087;28;20180;-71
2022/01/04 04:16:34;;;;;;;20.87;12.20;;;;;;;;;;5045931;28;20318;-72
2022/01/04 04:18:59;;;;;;;19.07;12.23;;;;;;;;;;5030435;28;20260;-74
2022/01/04 04:21:24;;;;;;;17.53;11.70;;;;;;;;;;5043063;28;20168;-75
2022/01/04 04:23:49;;;;;;;23.07;11.83;;;;;;;;;;5043387;28;20165;-73
2022/01/04 04:26:15;;;;;;;18.77;12.03;;;;;;;;;;5044785;28;20181;-70
2022/01/04 04:28:40;;;;;;;16.80;11.50;;;;;;;;;;5046121;28;20189;-72
2022/01/04 04:31:05;;;;;;;17.90;11.60;;;;;;;;;;5045418;28;21209;-71
2022/01/04 04:33:31;;;;;;;17.93;13.07;;;;;;;;;;5042835;28;20212;-71
2022/01/04 04:35:56;;;;;;;17.00;11.13;;;;;;;;;;5044764;28;20227;-71
2022/01/04 04:38:21;;;;;;;16.80;11.00;;;;;;;;;;5043954;28;20207;-72
2022/01/04 04:40:46;;;;;;;19.23;11.63;;;;;;;;;;5047551;28;20241;-71
2022/01/04 04:43:12;;;;;;;15.40;11.37;;;;;;;;;;5043396;28;20253;-70
2022/01/04 04:45:37;;;;;;;17.20;11.37;;;;;;;;;;5045060;28;20895;-71
2022/01/04 04:48:02;;;;;;;20.23;12.47;;;;;;;;;;5054537;28;20189;-71
2022/01/04 04:50:27;;;;;;;19.57;11.87;;;;;;;;;;5045001;28;20193;-70
2022/01/04 04:52:53;;;;;;;17.20;12.67;;;;;;;;;;5026834;28;20269;-71
2022/01/04 04:55:18;;;;;;;16.57;11.97;;;;;;;;;;5044867;28;20191;-71
2022/01/04 04:57:43;;;;;;;20.33;12.60;;;;;;;;;;5027377;28;20231;-73
2022/01/04 05:00:09;;;;;;;21.17;12.50;;;;;;;;;;5026827;28;20454;-70
2022/01/04 05:02:34;;;;;;;19.43;11.90;;;;;;;;;;5026881;28;20196;-71
2022/01/04 05:04:59;;;;;;;19.60;12.30;;;;;;;;;;5052922;28;20181;-72
2022/01/04 05:07:26;;;;;;;15.77;12.43;;;;;;;;;;5044731;28;20184;-72
2022/01/04 05:09:51;;;;;;;20.87;12.93;;;;;;;;;;5046351;28;20177;-70
2022/01/04 05:12:16;;;;;;;17.57;13.07;;;;;;;;;;5045059;28;21001;-73
2022/01/04 05:14:45;;;;;;;19.53;13.50;;;;;;;;;;5044752;28;20189;-72
2022/01/04 05:17:11;;;;;;;20.87;13.77;;;;;;;;;;5045724;28;20309;-72
2022/01/04 05:19:36;;;;;;;17.37;13.47;;;;;;;;;;5045652;28;20184;-73
2022/01/04 05:22:01;;;;;;;19.77;12.93;;;;;;;;;;5025742;28;20668;-73
2022/01/04 05:24:26;;;;;;;17.50;13.63;;;;;;;;;;5044766;28;20564;-72
2022/01/04 05:26:51;;;;;;;19.77;13.33;;;;;;;;;;5044492;28;20185;-71
2022/01/04 05:29:16;;;;;;;17.33;13.73;;;;;;;;;;5045261;28;20207;-72
2022/01/04 05:31:42;;;;;;;23.10;13.63;;;;;;;;;;5047593;28;20222;-72
2022/01/04 05:34:07;;;;;;;19.47;13.17;;;;;;;;;;5046043;28;20181;-72
2022/01/04 05:36:32;;;;;;;20.40;13.80;;;;;;;;;;5047208;28;20260;-71
2022/01/04 05:38:57;;;;;;;20.27;12.97;;;;;;;;;;5048675;28;20181;-71
2022/01/04 05:41:22;;;;;;;17.27;12.50;;;;;;;;;;5047905;28;20216;-72
2022/01/04 05:43:48;;;;;;;17.73;13.20;;;;;;;;;;5047655;28;20915;-72
2022/01/04 05:46:13;;;;;;;18.13;12.77;;;;;;;;;;5046453;28;20252;-71
2022/01/04 05:48:38;;;;;;;20.90;13.37;;;;;;;;;;5052193;28;21491;-71
2022/01/04 05:51:04;;;;;;;19.07;12.80;;;;;;;;;;5056229;28;21919;-72
2022/01/04 05:53:30;;;;;;;16.77;11.13;;;;;;;;;;5048545;28;20196;-71
2022/01/04 05:55:55;;;;;;;18.63;12.73;;;;;;;;;;5051214;28;20256;-72
2022/01/04 05:58:20;;;;;;;20.37;13.97;;;;;;;;;;5047673;28;20212;-72
2022/01/04 06:00:45;;;;;;;17.97;13.13;;;;;;;;;;5049792;28;20545;-71
2022/01/04 06:03:10;;;;;;;20.83;12.83;;;;;;;;;;5050742;28;20306;-72
2022/01/04 06:05:35;;;;;;;18.03;14.17;;;;;;;;;;5052796;28;20173;-71
2022/01/04 06:08:01;;;;;;;19.63;14.07;;;;;;;;;;5046920;28;20556;-72
2022/01/04 06:10:27;;;;;;;23.27;14.17;;;;;;;;;;5048855;28;20274;-72
2022/01/04 06:15:18;;;;;;;20.30;14.63;;;;;;;;;;5072899;28;20204;-71
2022/01/04 06:17:49;;;;;;;21.47;14.37;;;;;;;;;;5061564;28;20243;-73
2022/01/04 06:20:15;;;;;;;19.87;13.07;;;;;;;;;;5031348;28;20428;-71
2022/01/04 06:22:41;;;;;;;21.87;15.00;;;;;;;;;;5045184;28;20204;-71
2022/01/04 06:25:07;;;;;;;24.50;14.33;;;;;;;;;;5047210;28;20225;-72
2022/01/04 06:27:33;;;;;;;21.57;14.97;;;;;;;;;;5047578;28;20185;-73
2022/01/04 06:29:58;;;;;;;22.83;14.13;;;;;;;;;;5046651;28;20206;-71
2022/01/04 06:32:24;;;;;;;20.43;14.73;;;;;;;;;;5066585;22;20601;-70
2022/01/04 06:34:49;;;;;;;20.33;14.90;;;;;;;;;;5062623;28;20188;-70
2022/01/04 06:37:14;;;;;;;20.93;14.93;;;;;;;;;;5064817;28;20625;-70
2022/01/04 06:39:40;;;;;;;19.97;14.23;;;;;;;;;;5064184;28;20616;-70
2022/01/04 06:42:05;;;;;;;20.77;14.43;;;;;;;;;;5062105;28;20345;-71
2022/01/04 06:44:31;;;;;;;19.73;14.93;;;;;;;;;;5052615;28;20184;-70
2022/01/04 06:46:56;;;;;;;22.40;14.27;;;;;;;;;;5052155;28;20887;-69
2022/01/04 06:49:22;;;;;;;19.40;14.07;;;;;;;;;;5055339;28;20184;-70
2022/01/04 06:51:48;;;;;;;21.53;15.90;;;;;;;;;;5054268;28;20189;-70
2022/01/04 06:54:14;;;;;;;21.10;14.50;;;;;;;;;;5055983;28;20184;-70
2022/01/04 06:56:40;;;;;;;21.73;14.30;;;;;;;;;;5056202;28;20211;-69
2022/01/04 06:59:06;;;;;;;18.70;13.73;;;;;;;;;;5052694;28;20559;-70
2022/01/04 07:01:32;;;;;;;19.53;13.23;;;;;;;;;;5052329;28;22108;-70
2022/01/04 07:03:57;;;;;;;19.50;13.53;;;;;;;;;;5054023;28;20196;-69
2022/01/04 07:06:22;;;;;;;25.23;13.00;;;;;;;;;;5054034;28;20625;-68
2022/01/04 07:08:47;;;;;;;18.97;13.17;;;;;;;;;;5054583;28;20192;-69
2022/01/04 07:11:13;;;;;;;19.70;13.30;;;;;;;;;;5055617;28;20660;-69
2022/01/04 07:13:39;;;;;;;18.60;13.50;;;;;;;;;;5053682;28;20235;-69
2022/01/04 07:16:04;;;;;;;21.07;13.40;;;;;;;;;;5053025;28;20268;-69
2022/01/04 07:18:29;;;;;;;18.83;13.40;;;;;;;;;;5055820;28;20287;-69
2022/01/04 07:20:54;;;;;;;19.87;12.77;;;;;;;;;;5053771;28;20181;-70
2022/01/04 07:23:20;;;;;;;19.50;12.63;;;;;;;;;;5052739;28;21372;-71
2022/01/04 07:25:45;;;;;;;17.40;12.90;;;;;;;;;;5051912;28;20192;-71
2022/01/04 07:28:10;;;;;;;19.10;13.57;;;;;;;;;;5054599;28;20207;-69
2022/01/04 07:30:35;;;;;;;19.40;13.17;;;;;;;;;;5051061;28;20188;-70
2022/01/04 07:33:01;;;;;;;21.83;13.27;;;;;;;;;;5049600;28;20212;-69
2022/01/04 07:35:26;;;;;;;17.27;13.43;;;;;;;;;;5047231;28;20184;-70
2022/01/04 07:37:51;;;;;;;20.40;13.43;;;;;;;;;;5054476;28;20649;-70
2022/01/04 07:40:17;;;;;;;17.97;12.63;;;;;;;;;;5052882;28;20176;-69
2022/01/04 07:42:43;;;;;;;18.40;12.90;;;;;;;;;;5054085;28;20205;-69
2022/01/04 07:45:08;;;;;;;22.07;13.33;;;;;;;;;;5049451;28;20196;-69
2022/01/04 07:47:33;;;;;;;23.10;13.97;;;;;;;;;;5057000;28;20284;-70
2022/01/04 07:49:59;;;;;;;23.80;13.60;;;;;;;;;;5054538;28;20188;-70
2022/01/04 07:52:24;;;;;;;19.50;13.27;;;;;;;;;;5054167;28;20262;-70
2022/01/04 07:54:49;;;;;;;23.03;13.97;;;;;;;;;;5053275;28;20247;-70
2022/01/04 07:57:14;;;;;;;17.77;12.87;;;;;;;;;;5053399;28;20685;-71
2022/01/04 07:59:40;;;;;;;19.93;13.97;;;;;;;;;;5052791;28;20223;-70
2022/01/04 08:02:05;;;;;;;21.87;14.67;;;;;;;;;;5048937;28;20204;-71
2022/01/04 08:04:30;;;;;;;22.73;15.63;;;;;;;;;;5052765;28;20180;-69
2022/01/04 08:06:55;;;;;;;24.40;14.90;;;;;;;;;;5052473;28;20176;-70
2022/01/04 08:09:21;;;;;;;22.40;14.43;;;;;;;;;;5053307;28;20191;-70
2022/01/04 08:11:46;;;;;;;26.60;14.97;;;;;;;;;;5050711;28;20268;-68
2022/01/04 08:14:11;;;;;;;46.43;17.80;;;;;;;;;;5051890;28;20213;-70
2022/01/04 08:16:36;;;;;;;25.60;15.17;;;;;;;;;;5052415;28;20223;-71
2022/01/04 08:19:02;;;;;;;24.47;15.90;;;;;;;;;;5051714;28;20183;-70
2022/01/04 08:21:27;;;;;;;27.13;15.80;;;;;;;;;;5057053;28;20717;-69
2022/01/04 08:23:52;;;;;;;25.93;17.03;;;;;;;;;;5057081;28;20236;-72
2022/01/04 08:26:18;;;;;;;25.07;15.67;;;;;;;;;;5052736;28;20210;-70
2022/01/04 08:28:44;;;;;;;24.73;15.83;;;;;;;;;;5057100;28;20180;-70
2022/01/04 08:31:10;;;;;;;24.07;15.33;;;;;;;;;;5055570;28;20172;-70
2022/01/04 08:33:35;;;;;;;29.47;16.47;;;;;;;;;;5060564;28;20240;-71
2022/01/04 08:36:00;;;;;;;24.13;15.10;;;;;;;;;;5073578;28;20181;-70
2022/01/04 08:38:26;;;;;;;24.77;15.03;;;;;;;;;;5072868;28;20254;-70
2022/01/04 08:40:51;;;;;;;24.50;15.90;;;;;;;;;;5071487;28;20173;-70
2022/01/04 08:43:17;;;;;;;23.27;14.07;;;;;;;;;;5067086;28;20192;-72
2022/01/04 08:45:42;;;;;;;26.97;14.17;;;;;;;;;;5052521;28;20191;-70
2022/01/04 08:48:07;;;;;;;18.37;11.97;;;;;;;;;;5068906;28;20638;-70
2022/01/04 08:50:33;;;;;;;13.40;9.77;;;;;;;;;;5056653;28;20290;-70
2022/01/04 08:52:58;;;;;;;16.53;10.23;;;;;;;;;;5059256;28;21921;-71
2022/01/04 08:55:24;;;;;;;11.80;8.13;;;;;;;;;;5054749;28;20176;-69
2022/01/04 08:57:49;;;;;;;11.60;7.87;;;;;;;;;;5054594;28;20207;-73
2022/01/04 09:00:15;;;;;;;11.87;8.50;;;;;;;;;;5056523;28;20184;-70
2022/01/04 09:02:40;;;;;;;10.77;7.80;;;;;;;;;;5056917;28;20196;-71
2022/01/04 09:05:06;;;;;;;13.67;8.57;;;;;;;;;;5057315;28;20539;-69
2022/01/04 09:07:31;;;;;;;13.83;10.40;;;;;;;;;;5058841;28;20567;-69
2022/01/04 09:09:56;;;;;;;14.10;10.67;;;;;;;;;;5055100;28;21989;-70
2022/01/04 09:12:25;;;;;;;15.33;10.40;;;;;;;;;;5053887;28;20209;-70
2022/01/04 09:20:03;;;;;;;16.47;11.33;;;;;;;;;;5056397;28;20200;-70
2022/01/04 09:22:28;;;;;;;20.23;11.73;;;;;;;;;;5043048;28;20192;-71
2022/01/04 09:24:53;;;;;;;16.00;10.50;;;;;;;;;;5057914;28;20670;-70
2022/01/04 09:27:18;;;;;;;12.97;9.70;;;;;;;;;;5060858;28;20196;-71
2022/01/04 09:29:44;;;;;;;11.67;8.53;;;;;;;;;;5057141;28;20181;-71
2022/01/04 09:32:13;;;;;;;12.50;9.00;;;;;;;;;;5056238;28;20207;-69
2022/01/04 09:34:38;;;;;;;13.93;9.87;;;;;;;;;;5052473;28;20192;-69
2022/01/04 09:37:03;;;;;;;14.17;9.50;;;;;;;;;;5057263;28;20205;-69
2022/01/04 09:39:29;;;;;;;11.30;9.40;;;;;;;;;;5059659;28;20226;-70
2022/01/04 09:41:55;;;;;;;12.43;8.60;;;;;;;;;;5057926;28;20287;-69
2022/01/04 09:44:22;;;;;;;13.97;9.93;;;;;;;;;;5057741;28;20235;-70
2022/01/04 09:46:47;;;;;;;18.40;9.73;;;;;;;;;;5055862;28;20190;-69
2022/01/04 09:49:14;;;;;;;13.73;9.33;;;;;;;;;;5059436;28;20195;-71
2022/01/04 09:51:40;;;;;;;17.17;10.97;;;;;;;;;;5042138;28;20220;-69
2022/01/04 09:54:06;;;;;;;12.33;8.10;;;;;;;;;;5053437;28;20642;-69
2022/01/04 09:56:31;;;;;;;14.07;8.13;;;;;;;;;;5055244;28;20184;-71
2022/01/04 09:58:56;;;;;;;10.53;7.70;;;;;;;;;;5058637;28;20180;-70
2022/01/04 10:01:23;;;;;;;12.40;7.30;;;;;;;;;;5056540;28;20181;-71
2022/01/04 10:03:48;;;;;;;8.70;5.73;;;;;;;;;;5058208;28;20263;-71
2022/01/04 10:06:17;;;;;;;9.00;5.57;;;;;;;;;;5052403;28;21432;-71
2022/01/04 10:08:53;;;;;;;6.77;4.33;;;;;;;;;;5041079;28;20189;-70
2022/01/04 10:11:28;;;;;;;7.97;4.83;;;;;;;;;;5055158;28;20216;-71
2022/01/04 10:13:53;;;;;;;5.67;4.13;;;;;;;;;;5052256;28;20211;-71
2022/01/04 10:16:18;;;;;;;10.33;5.07;;;;;;;;;;5057263;28;20196;-70
2022/01/04 10:18:47;;;;;;;6.03;3.87;;;;;;;;;;5066108;28;20177;-72
2022/01/04 10:21:13;;;;;;;7.97;4.73;;;;;;;;;;5042199;28;20646;-71
2022/01/04 10:23:49;;;;;;;6.23;4.80;;;;;;;;;;5058043;28;20200;-71
2022/01/04 10:26:14;;;;;;;10.67;5.13;;;;;;;;;;5057550;28;20211;-71
2022/01/04 10:28:41;;;;;;;8.03;5.57;;;;;;;;;;5059745;28;20741;-70
2022/01/04 10:31:08;;;;;;;9.40;5.60;;;;;;;;;;5059272;28;20681;-70
2022/01/04 10:33:34;;;;;;;8.07;6.90;;;;;;;;;;5059130;28;20330;-71
2022/01/04 10:36:01;;;;;;;12.60;6.87;;;;;;;;;;5044671;28;20659;-72
2022/01/04 10:38:36;;;;;;;12.57;6.87;;;;;;;;;;5057008;28;20196;-70
2022/01/04 10:41:17;;;;;;;13.80;9.40;;;;;;;;;;5063887;28;20185;-71
2022/01/04 10:43:47;;;;;;;11.67;8.53;;;;;;;;;;5038047;28;20204;-70
2022/01/04 10:46:13;;;;;;;14.33;8.53;;;;;;;;;;5060649;28;20177;-71
2022/01/04 10:48:41;;;;;;;14.27;8.77;;;;;;;;;;5062559;28;20388;-71
2022/01/04 10:51:09;;;;;;;9.97;7.80;;;;;;;;;;5044500;28;20184;-70
2022/01/04 10:53:37;;;;;;;13.43;8.40;;;;;;;;;;5057988;28;20692;-71
2022/01/04 10:56:03;;;;;;;14.60;8.70;;;;;;;;;;5044690;28;20180;-71
2022/01/04 10:58:30;;;;;;;11.40;7.97;;;;;;;;;;5061778;28;20203;-70
2022/01/04 11:01:00;;;;;;;17.23;8.10;;;;;;;;;;5057932;28;20180;-70
2022/01/04 11:03:30;;;;;;;18.23;7.87;;;;;;;;;;5062253;28;21253;-70
2022/01/04 11:05:58;;;;;;;15.33;8.10;;;;;;;;;;5060222;28;20185;-70
2022/01/04 11:08:23;;;;;;;14.43;8.30;;;;;;;;;;5063092;28;20185;-70
2022/01/04 11:10:50;;;;;;;13.70;9.07;;;;;;;;;;5059519;28;20192;-70
2022/01/04 11:13:15;;;;;;;14.53;8.80;;;;;;;;;;5057866;28;20776;-69
2022/01/04 11:15:41;;;;;;;14.57;8.90;;;;;;;;;;5062108;28;20185;-70
2022/01/04 11:18:06;;;;;;;14.30;9.43;;;;;;;;;;5058202;28;20214;-70
2022/01/04 11:20:32;;;;;;;15.33;7.80;;;;;;;;;;5058174;28;20177;-72
2022/01/04 11:22:59;;;;;;;13.93;9.00;;;;;;;;;;5054797;28;20196;-71
2022/01/04 11:25:24;;;;;;;17.73;9.37;;;;;;;;;;5057076;28;20234;-70
2022/01/04 11:27:52;;;;;;;17.87;7.67;;;;;;;;;;5057767;28;20205;-70
2022/01/04 11:30:25;;;;;;;11.73;5.60;;;;;;;;;;5041063;28;20245;-70
2022/01/04 11:32:59;;;;;;;14.13;5.20;;;;;;;;;;5055442;28;20216;-69
2022/01/04 11:35:26;;;;;;;15.37;6.47;;;;;;;;;;5062319;28;20187;-69
2022/01/04 11:37:55;;;;;;;6.97;2.80;;;;;;;;;;5041210;28;20197;-69
2022/01/04 11:40:21;;;;;;;9.27;2.90;;;;;;;;;;5055943;28;20176;-68
2022/01/04 11:42:47;;;;;;;10.37;2.50;;;;;;;;;;5057790;28;20238;-69
2022/01/04 11:45:12;;;;;;;8.50;3.03;;;;;;;;;;5056902;28;20170;-70
2022/01/04 11:47:38;;;;;;;10.43;3.03;;;;;;;;;;5056466;28;20181;-70
2022/01/04 11:50:25;;;;;;;3.27;1.93;;;;;;;;;;5056143;28;20606;-70
2022/01/04 11:52:51;;;;;;;5.77;2.10;;;;;;;;;;5060886;28;20714;-70
2022/01/04 11:55:16;;;;;;;5.17;2.63;;;;;;;;;;5036714;28;20189;-70
2022/01/04 11:57:42;;;;;;;4.53;1.80;;;;;;;;;;5041376;28;20273;-70
2022/01/04 12:00:07;;;;;;;5.60;2.30;;;;;;;;;;5060421;28;20168;-70
2022/01/04 12:02:38;;;;;;;2.70;1.87;;;;;;;;;;5054268;28;21200;-71
2022/01/04 12:05:04;;;;;;;9.70;2.33;;;;;;;;;;5059681;28;20452;-70
2022/01/04 12:07:38;;;;;;;3.43;1.80;;;;;;;;;;5059984;28;20737;-70
2022/01/04 12:10:19;;;;;;;5.37;2.83;;;;;;;;;;5059104;28;20649;-70
2022/01/04 12:13:04;;;;;;;7.13;2.40;;;;;;;;;;5056009;28;20193;-70
2022/01/04 12:15:32;;;;;;;5.53;2.73;;;;;;;;;;5057385;28;20713;-70
2022/01/04 12:17:58;;;;;;;3.07;1.63;;;;;;;;;;5043172;28;21238;-70
2022/01/04 12:20:45;;;;;;;2.90;1.70;;;;;;;;;;5041334;28;20282;-69
2022/01/04 12:23:25;;;;;;;2.73;1.97;;;;;;;;;;5054875;28;20211;-70
2022/01/04 12:26:02;;;;;;;3.93;1.77;;;;;;;;;;5058839;28;20657;-70
2022/01/04 12:28:28;;;;;;;1.70;1.47;;;;;;;;;;5057773;28;20267;-70
2022/01/04 12:31:13;;;;;;;4.03;1.80;;;;;;;;;;5059110;28;20836;-70
2022/01/04 12:33:40;;;;;;;4.50;1.87;;;;;;;;;;5059523;28;20401;-71
2022/01/04 12:36:05;;;;;;;3.43;1.30;;;;;;;;;;5057741;28;20185;-71
2022/01/04 12:38:32;;;;;;;3.27;1.40;;;;;;;;;;5059127;28;20944;-71
2022/01/04 12:40:58;;;;;;;5.33;1.63;;;;;;;;;;5056860;28;20559;-71
2022/01/04 12:43:23;;;;;;;5.63;1.37;;;;;;;;;;5042024;28;20224;-71
2022/01/04 12:45:58;;;;;;;5.40;1.83;;;;;;;;;;5059545;28;20728;-71
2022/01/04 12:48:42;;;;;;;3.07;2.07;;;;;;;;;;5049213;28;20181;-70
2022/01/04 12:51:25;;;;;;;4.57;1.97;;;;;;;;;;5053881;28;20186;-70
2022/01/04 12:53:54;;;;;;;5.87;2.23;;;;;;;;;;5056249;28;20211;-71
2022/01/04 12:56:19;;;;;;;4.27;1.77;;;;;;;;;;5055626;28;20186;-71
2022/01/04 12:58:45;;;;;;;4.23;2.53;;;;;;;;;;5057911;28;20205;-71
2022/01/04 13:01:13;;;;;;;2.97;2.00;;;;;;;;;;5055089;28;20205;-71
2022/01/04 13:03:39;;;;;;;4.77;2.20;;;;;;;;;;5056677;28;20200;-71
2022/01/04 13:06:05;;;;;;;6.07;2.77;;;;;;;;;;5056553;28;20526;-71
2022/01/04 13:08:31;;;;;;;4.10;2.50;;;;;;;;;;5059533;28;20297;-71
2022/01/04 13:11:09;;;;;;;5.23;1.90;;;;;;;;;;5055240;28;20657;-71
2022/01/04 13:13:34;;;;;;;4.13;1.80;;;;;;;;;;5058852;28;20248;-71
2022/01/04 13:16:19;;;;;;;3.07;1.83;;;;;;;;;;5054617;28;20174;-71
2022/01/04 13:18:44;;;;;;;7.40;2.20;;;;;;;;;;5058241;28;20229;-71
2022/01/04 13:21:09;;;;;;;3.70;2.30;;;;;;;;;;5061902;28;20179;-71
2022/01/04 13:23:41;;;;;;;1.57;1.40;;;;;;;;;;5057283;28;20204;-71
2022/01/04 13:26:09;;;;;;;3.20;2.30;;;;;;;;;;5060248;28;20177;-71
2022/01/04 13:28:34;;;;;;;5.43;1.10;;;;;;;;;;5058245;28;20562;-70
2022/01/04 13:30:59;;;;;;;4.47;1.30;;;;;;;;;;5053853;28;20183;-71
2022/01/04 13:33:25;;;;;;;9.37;2.03;;;;;;;;;;5054621;28;20221;-71
2022/01/04 13:35:53;;;;;;;5.73;1.30;;;;;;;;;;5039246;28;20189;-70
2022/01/04 13:38:21;;;;;;;2.90;1.10;;;;;;;;;;5054552;28;20352;-71
2022/01/04 13:40:47;;;;;;;4.77;1.73;;;;;;;;;;5059523;28;20217;-71
2022/01/04 13:43:13;;;;;;;17.43;4.30;;;;;;;;;;5055217;28;20701;-71
2022/01/04 13:45:40;;;;;;;6.80;1.70;;;;;;;;;;5053560;28;20219;-71
2022/01/04 13:48:05;;;;;;;5.40;1.67;;;;;;;;;;5056619;28;20253;-71
2022/01/04 13:50:33;;;;;;;3.87;1.57;;;;;;;;;;5058994;28;21052;-71
2022/01/04 13:53:00;;;;;;;5.57;1.97;;;;;;;;;;5058255;28;20199;-71
2022/01/04 13:55:25;;;;;;;3.93;1.37;;;;;;;;;;5060435;28;20199;-71
2022/01/04 13:57:50;;;;;;;2.47;1.10;;;;;;;;;;5059142;28;20229;-71
2022/01/04 14:00:24;;;;;;;2.43;0.90;;;;;;;;;;5061467;28;20302;-71
2022/01/04 14:02:49;;;;;;;3.13;0.97;;;;;;;;;;5060416;28;20202;-71
2022/01/04 14:05:15;;;;;;;2.23;0.97;;;;;;;;;;5063480;28;20185;-71
2022/01/04 14:07:41;;;;;;;4.63;0.90;;;;;;;;;;5058404;28;20745;-71
2022/01/04 14:10:06;;;;;;;5.03;1.10;;;;;;;;;;5060234;28;20196;-72
2022/01/04 14:12:31;;;;;;;3.63;0.90;;;;;;;;;;5059888;28;22125;-71
2022/01/04 14:14:57;;;;;;;4.60;1.67;;;;;;;;;;5060891;28;20189;-72
2022/01/04 14:17:23;;;;;;;4.90;0.93;;;;;;;;;;5060222;28;20212;-69
2022/01/04 14:19:52;;;;;;;2.77;0.80;;;;;;;;;;5060456;28;20711;-69
2022/01/04 14:22:18;;;;;;;3.07;1.00;;;;;;;;;;5044541;28;20200;-69
2022/01/04 14:24:47;;;;;;;5.43;0.80;;;;;;;;;;5059437;28;20186;-69
2022/01/04 14:27:22;;;;;;;7.00;1.07;;;;;;;;;;5059403;28;20193;-71